Terminal Aerodrome Forecast
Issued by NWS

Home | Current Version | Previous Version | Graphics & Text | Print | Product List | Glossary On
Versions: 1 2 3 4 5 6 7 8 9 10 11 12 13 14 15 16
000
FTUS43 KGRB 211727
TAFAUW
TAF
KAUW 211727Z 2118/2218 34010G18KT P6SM SCT045
      TEMPO 2118/2122 BKN045
     FM212300 34009KT P6SM FEW050
     FM220300 36007KT P6SM FEW250
     FM220900 03004KT P6SM SCT250
     FM221400 10005KT P6SM SCT140 BKN200=

USA.gov is the U.S. government's official web portal to all federal, state and local government web resources and services.